sensor_id;sensor_type;location;lat;lon;timestamp;temperature;humidity
52849;DHT22;38714;53.180;5.812;2023-06-22T00:00:00;18.80;99.90
52849;DHT22;38714;53.180;5.812;2023-06-22T00:02:26;18.70;99.90
52849;DHT22;38714;53.180;5.812;2023-06-22T00:04:52;18.80;99.90
52849;DHT22;38714;53.180;5.812;2023-06-22T00:07:17;18.70;99.90
52849;DHT22;38714;53.180;5.812;2023-06-22T00:09:43;18.70;99.90
52849;DHT22;38714;53.180;5.812;2023-06-22T00:12:08;18.70;99.90
52849;DHT22;38714;53.180;5.812;2023-06-22T00:14:34;18.60;99.90
52849;DHT22;38714;53.180;5.812;2023-06-22T00:16:59;18.60;99.90
52849;DHT22;38714;53.180;5.812;2023-06-22T00:19:25;18.50;99.90
52849;DHT22;38714;53.180;5.812;2023-06-22T00:21:51;18.50;99.90
52849;DHT22;38714;53.180;5.812;2023-06-22T00:24:19;18.50;99.90
52849;DHT22;38714;53.180;5.812;2023-06-22T00:26:45;18.50;99.90
52849;DHT22;38714;53.180;5.812;2023-06-22T00:29:11;18.60;99.90
52849;DHT22;38714;53.180;5.812;2023-06-22T00:31:36;18.50;99.90
52849;DHT22;38714;53.180;5.812;2023-06-22T00:34:02;18.50;99.90
52849;DHT22;38714;53.180;5.812;2023-06-22T00:36:28;18.60;99.90
52849;DHT22;38714;53.180;5.812;2023-06-22T00:38:53;18.50;99.90
52849;DHT22;38714;53.180;5.812;2023-06-22T00:41:19;18.50;99.90
52849;DHT22;38714;53.180;5.812;2023-06-22T00:43:45;18.50;99.90
52849;DHT22;38714;53.180;5.812;2023-06-22T00:46:10;18.40;99.90
52849;DHT22;38714;53.180;5.812;2023-06-22T00:48:36;18.40;99.90
52849;DHT22;38714;53.180;5.812;2023-06-22T00:51:02;18.30;99.90
52849;DHT22;38714;53.180;5.812;2023-06-22T00:53:28;18.30;99.90
52849;DHT22;38714;53.180;5.812;2023-06-22T00:55:54;18.30;99.90
52849;DHT22;38714;53.180;5.812;2023-06-22T00:58:21;18.20;99.90
52849;DHT22;38714;53.180;5.812;2023-06-22T01:00:47;18.20;99.90
52849;DHT22;38714;53.180;5.812;2023-06-22T01:03:13;18.20;99.90
52849;DHT22;38714;53.180;5.812;2023-06-22T01:05:40;18.10;99.90
52849;DHT22;38714;53.180;5.812;2023-06-22T01:10:55;18.00;99.90
52849;DHT22;38714;53.180;5.812;2023-06-22T01:14:00;17.90;99.90
52849;DHT22;38714;53.180;5.812;2023-06-22T01:18:48;17.90;99.90
52849;DHT22;38714;53.180;5.812;2023-06-22T01:21:17;17.80;99.90
52849;DHT22;38714;53.180;5.812;2023-06-22T01:29:06;17.70;99.90
52849;DHT22;38714;53.180;5.812;2023-06-22T01:31:34;17.70;99.90
52849;DHT22;38714;53.180;5.812;2023-06-22T01:34:03;17.70;99.90
52849;DHT22;38714;53.180;5.812;2023-06-22T01:36:30;17.70;99.90
52849;DHT22;38714;53.180;5.812;2023-06-22T01:38:57;17.70;99.90
52849;DHT22;38714;53.180;5.812;2023-06-22T01:41:26;17.70;99.90
52849;DHT22;38714;53.180;5.812;2023-06-22T01:43:53;17.70;99.90
52849;DHT22;38714;53.180;5.812;2023-06-22T01:46:20;17.70;99.90
52849;DHT22;38714;53.180;5.812;2023-06-22T01:48:47;17.80;99.90
52849;DHT22;38714;53.180;5.812;2023-06-22T01:51:13;17.80;99.90
52849;DHT22;38714;53.180;5.812;2023-06-22T01:53:39;17.70;99.90
52849;DHT22;38714;53.180;5.812;2023-06-22T01:56:05;17.80;99.90
52849;DHT22;38714;53.180;5.812;2023-06-22T01:58:32;17.80;99.90
52849;DHT22;38714;53.180;5.812;2023-06-22T02:01:12;17.80;99.90
52849;DHT22;38714;53.180;5.812;2023-06-22T02:03:46;17.80;99.90
52849;DHT22;38714;53.180;5.812;2023-06-22T02:06:21;17.90;99.90
52849;DHT22;38714;53.180;5.812;2023-06-22T02:08:55;17.80;99.90
52849;DHT22;38714;53.180;5.812;2023-06-22T02:11:22;17.80;99.90
52849;DHT22;38714;53.180;5.812;2023-06-22T02:13:49;17.80;99.90
52849;DHT22;38714;53.180;5.812;2023-06-22T02:16:16;17.80;99.90
52849;DHT22;38714;53.180;5.812;2023-06-22T02:18:50;17.80;99.90
52849;DHT22;38714;53.180;5.812;2023-06-22T02:21:20;17.80;99.90
52849;DHT22;38714;53.180;5.812;2023-06-22T02:23:46;17.80;99.90
52849;DHT22;38714;53.180;5.812;2023-06-22T02:26:13;17.70;99.90
52849;DHT22;38714;53.180;5.812;2023-06-22T02:28:38;17.70;99.90
52849;DHT22;38714;53.180;5.812;2023-06-22T02:31:04;17.70;99.90
52849;DHT22;38714;53.180;5.812;2023-06-22T02:33:30;17.70;99.90
52849;DHT22;38714;53.180;5.812;2023-06-22T02:35:56;17.70;99.90
52849;DHT22;38714;53.180;5.812;2023-06-22T02:38:21;17.70;99.90
52849;DHT22;38714;53.180;5.812;2023-06-22T02:40:50;17.70;99.90
52849;DHT22;38714;53.180;5.812;2023-06-22T02:43:15;17.70;99.90
52849;DHT22;38714;53.180;5.812;2023-06-22T02:45:41;17.70;99.90
52849;DHT22;38714;53.180;5.812;2023-06-22T02:48:07;17.60;99.90
52849;DHT22;38714;53.180;5.812;2023-06-22T02:50:32;17.70;99.90
52849;DHT22;38714;53.180;5.812;2023-06-22T02:52:58;17.70;99.90
52849;DHT22;38714;53.180;5.812;2023-06-22T02:55:23;17.60;99.90
52849;DHT22;38714;53.180;5.812;2023-06-22T02:57:49;17.60;99.90
52849;DHT22;38714;53.180;5.812;2023-06-22T03:00:18;17.60;99.90
52849;DHT22;38714;53.180;5.812;2023-06-22T03:02:45;17.60;99.90
52849;DHT22;38714;53.180;5.812;2023-06-22T03:05:12;17.50;99.90
52849;DHT22;38714;53.180;5.812;2023-06-22T03:07:42;17.50;99.90
52849;DHT22;38714;53.180;5.812;2023-06-22T03:10:12;17.40;99.90
52849;DHT22;38714;53.180;5.812;2023-06-22T03:12:38;17.40;99.90
52849;DHT22;38714;53.180;5.812;2023-06-22T03:15:09;17.30;99.90
52849;DHT22;38714;53.180;5.812;2023-06-22T03:17:36;17.30;99.90
52849;DHT22;38714;53.180;5.812;2023-06-22T03:20:03;17.30;99.90
52849;DHT22;38714;53.180;5.812;2023-06-22T03:22:39;17.30;99.90
52849;DHT22;38714;53.180;5.812;2023-06-22T03:25:05;17.30;99.90
52849;DHT22;38714;53.180;5.812;2023-06-22T03:27:37;17.30;99.90
52849;DHT22;38714;53.180;5.812;2023-06-22T03:30:03;17.30;99.90
52849;DHT22;38714;53.180;5.812;2023-06-22T03:32:28;17.30;99.90
52849;DHT22;38714;53.180;5.812;2023-06-22T03:34:54;17.20;99.90
52849;DHT22;38714;53.180;5.812;2023-06-22T03:37:21;17.20;99.90
52849;DHT22;38714;53.180;5.812;2023-06-22T03:39:47;17.20;99.90
52849;DHT22;38714;53.180;5.812;2023-06-22T03:42:15;17.20;99.90
52849;DHT22;38714;53.180;5.812;2023-06-22T03:44:41;17.20;99.90
52849;DHT22;38714;53.180;5.812;2023-06-22T03:47:06;17.20;99.90
52849;DHT22;38714;53.180;5.812;2023-06-22T03:49:33;17.20;99.90
52849;DHT22;38714;53.180;5.812;2023-06-22T03:52:00;17.20;99.90
52849;DHT22;38714;53.180;5.812;2023-06-22T03:54:28;17.20;99.90
52849;DHT22;38714;53.180;5.812;2023-06-22T03:56:54;17.10;99.90
52849;DHT22;38714;53.180;5.812;2023-06-22T03:59:20;17.10;99.90
52849;DHT22;38714;53.180;5.812;2023-06-22T04:01:46;17.20;99.90
52849;DHT22;38714;53.180;5.812;2023-06-22T04:04:12;17.10;99.90
52849;DHT22;38714;53.180;5.812;2023-06-22T04:06:38;17.10;99.90
52849;DHT22;38714;53.180;5.812;2023-06-22T04:09:05;17.10;99.90
52849;DHT22;38714;53.180;5.812;2023-06-22T04:11:30;17.10;99.90
52849;DHT22;38714;53.180;5.812;2023-06-22T04:13:56;17.10;99.90
52849;DHT22;38714;53.180;5.812;2023-06-22T04:16:22;17.20;99.90
52849;DHT22;38714;53.180;5.812;2023-06-22T04:18:47;17.20;99.90
52849;DHT22;38714;53.180;5.812;2023-06-22T04:21:13;17.20;99.90
52849;DHT22;38714;53.180;5.812;2023-06-22T04:23:39;17.20;99.90
52849;DHT22;38714;53.180;5.812;2023-06-22T04:26:05;17.20;99.90
52849;DHT22;38714;53.180;5.812;2023-06-22T04:28:30;17.30;99.90
52849;DHT22;38714;53.180;5.812;2023-06-22T04:31:04;17.30;99.90
52849;DHT22;38714;53.180;5.812;2023-06-22T04:33:30;17.30;99.90
52849;DHT22;38714;53.180;5.812;2023-06-22T04:35:56;17.40;99.90
52849;DHT22;38714;53.180;5.812;2023-06-22T04:38:29;17.40;99.90
52849;DHT22;38714;53.180;5.812;2023-06-22T04:40:58;17.40;99.90
52849;DHT22;38714;53.180;5.812;2023-06-22T04:43:24;17.40;99.90
52849;DHT22;38714;53.180;5.812;2023-06-22T04:45:49;17.40;99.90
52849;DHT22;38714;53.180;5.812;2023-06-22T04:48:17;17.50;99.90
52849;DHT22;38714;53.180;5.812;2023-06-22T04:50:43;17.50;99.90
52849;DHT22;38714;53.180;5.812;2023-06-22T04:53:09;17.50;99.90
52849;DHT22;38714;53.180;5.812;2023-06-22T04:55:39;17.50;99.90
52849;DHT22;38714;53.180;5.812;2023-06-22T04:58:07;17.50;99.90
52849;DHT22;38714;53.180;5.812;2023-06-22T05:00:33;17.50;99.90
52849;DHT22;38714;53.180;5.812;2023-06-22T05:03:01;17.50;99.90
52849;DHT22;38714;53.180;5.812;2023-06-22T05:05:29;17.50;99.90
52849;DHT22;38714;53.180;5.812;2023-06-22T05:07:56;17.50;99.90
52849;DHT22;38714;53.180;5.812;2023-06-22T05:10:25;17.50;99.90
52849;DHT22;38714;53.180;5.812;2023-06-22T05:12:51;17.50;99.90
52849;DHT22;38714;53.180;5.812;2023-06-22T05:15:16;17.50;99.90
52849;DHT22;38714;53.180;5.812;2023-06-22T05:17:44;17.50;99.90
52849;DHT22;38714;53.180;5.812;2023-06-22T05:20:11;17.60;99.90
52849;DHT22;38714;53.180;5.812;2023-06-22T05:22:37;17.60;99.90
52849;DHT22;38714;53.180;5.812;2023-06-22T05:25:03;17.70;99.90
52849;DHT22;38714;53.180;5.812;2023-06-22T05:27:28;17.70;99.90
52849;DHT22;38714;53.180;5.812;2023-06-22T05:29:54;17.80;99.90
52849;DHT22;38714;53.180;5.812;2023-06-22T05:32:20;17.80;99.90
52849;DHT22;38714;53.180;5.812;2023-06-22T05:34:46;17.80;99.90
52849;DHT22;38714;53.180;5.812;2023-06-22T05:37:11;17.90;99.90
52849;DHT22;38714;53.180;5.812;2023-06-22T05:39:38;17.90;99.90
52849;DHT22;38714;53.180;5.812;2023-06-22T05:42:07;17.90;99.90
52849;DHT22;38714;53.180;5.812;2023-06-22T05:44:33;18.00;99.90
52849;DHT22;38714;53.180;5.812;2023-06-22T05:46:59;18.00;99.90
52849;DHT22;38714;53.180;5.812;2023-06-22T05:49:25;18.10;99.90
52849;DHT22;38714;53.180;5.812;2023-06-22T05:51:55;18.10;99.90
52849;DHT22;38714;53.180;5.812;2023-06-22T05:54:22;18.10;99.90
52849;DHT22;38714;53.180;5.812;2023-06-22T05:56:47;18.20;99.90
52849;DHT22;38714;53.180;5.812;2023-06-22T05:59:13;18.20;99.90
52849;DHT22;38714;53.180;5.812;2023-06-22T06:01:39;18.30;99.90
52849;DHT22;38714;53.180;5.812;2023-06-22T06:04:06;18.30;99.90
52849;DHT22;38714;53.180;5.812;2023-06-22T06:06:34;18.40;99.90
52849;DHT22;38714;53.180;5.812;2023-06-22T06:09:00;18.40;99.90
52849;DHT22;38714;53.180;5.812;2023-06-22T06:11:26;18.50;99.90
52849;DHT22;38714;53.180;5.812;2023-06-22T06:13:52;18.50;99.90
52849;DHT22;38714;53.180;5.812;2023-06-22T06:16:17;18.50;99.90
52849;DHT22;38714;53.180;5.812;2023-06-22T06:18:43;18.60;99.90
52849;DHT22;38714;53.180;5.812;2023-06-22T06:21:09;18.60;99.90
52849;DHT22;38714;53.180;5.812;2023-06-22T06:23:34;18.60;99.90
52849;DHT22;38714;53.180;5.812;2023-06-22T06:26:00;18.60;99.90
52849;DHT22;38714;53.180;5.812;2023-06-22T06:28:26;18.60;99.90
52849;DHT22;38714;53.180;5.812;2023-06-22T06:30:52;18.70;99.90
52849;DHT22;38714;53.180;5.812;2023-06-22T06:33:18;18.70;99.90
52849;DHT22;38714;53.180;5.812;2023-06-22T06:35:44;18.70;99.90
52849;DHT22;38714;53.180;5.812;2023-06-22T06:38:10;18.70;99.90
52849;DHT22;38714;53.180;5.812;2023-06-22T06:40:36;18.80;99.90
52849;DHT22;38714;53.180;5.812;2023-06-22T06:43:01;18.80;99.90
52849;DHT22;38714;53.180;5.812;2023-06-22T06:45:27;18.80;99.90
52849;DHT22;38714;53.180;5.812;2023-06-22T06:47:53;18.80;99.90
52849;DHT22;38714;53.180;5.812;2023-06-22T06:50:19;18.80;99.90
52849;DHT22;38714;53.180;5.812;2023-06-22T06:52:45;18.80;99.90
52849;DHT22;38714;53.180;5.812;2023-06-22T06:55:11;18.80;99.90
52849;DHT22;38714;53.180;5.812;2023-06-22T06:57:40;18.90;99.90
52849;DHT22;38714;53.180;5.812;2023-06-22T07:00:08;18.90;99.90
52849;DHT22;38714;53.180;5.812;2023-06-22T07:02:38;18.90;99.90
52849;DHT22;38714;53.180;5.812;2023-06-22T07:05:05;18.90;99.90
52849;DHT22;38714;53.180;5.812;2023-06-22T07:07:31;19.00;99.90
52849;DHT22;38714;53.180;5.812;2023-06-22T07:09:57;19.00;99.90
52849;DHT22;38714;53.180;5.812;2023-06-22T07:12:22;19.10;99.90
52849;DHT22;38714;53.180;5.812;2023-06-22T07:14:48;19.10;99.90
52849;DHT22;38714;53.180;5.812;2023-06-22T07:17:15;19.10;99.90
52849;DHT22;38714;53.180;5.812;2023-06-22T07:19:41;19.20;99.90
52849;DHT22;38714;53.180;5.812;2023-06-22T07:22:07;19.20;99.90
52849;DHT22;38714;53.180;5.812;2023-06-22T07:24:33;19.20;99.90
52849;DHT22;38714;53.180;5.812;2023-06-22T07:26:58;19.30;99.90
52849;DHT22;38714;53.180;5.812;2023-06-22T07:29:25;19.40;99.90
52849;DHT22;38714;53.180;5.812;2023-06-22T07:31:52;19.50;99.90
52849;DHT22;38714;53.180;5.812;2023-06-22T07:34:18;19.50;99.90
52849;DHT22;38714;53.180;5.812;2023-06-22T07:36:44;19.60;99.90
52849;DHT22;38714;53.180;5.812;2023-06-22T07:39:10;19.60;99.90
52849;DHT22;38714;53.180;5.812;2023-06-22T07:41:35;19.60;99.90
52849;DHT22;38714;53.180;5.812;2023-06-22T07:44:02;19.70;99.90
52849;DHT22;38714;53.180;5.812;2023-06-22T07:46:29;19.70;99.90
52849;DHT22;38714;53.180;5.812;2023-06-22T07:48:56;19.70;99.90
52849;DHT22;38714;53.180;5.812;2023-06-22T07:51:22;19.80;99.90
52849;DHT22;38714;53.180;5.812;2023-06-22T07:53:49;19.80;99.90
52849;DHT22;38714;53.180;5.812;2023-06-22T07:56:14;19.90;99.90
52849;DHT22;38714;53.180;5.812;2023-06-22T07:58:44;19.90;99.90
52849;DHT22;38714;53.180;5.812;2023-06-22T08:01:11;20.00;99.90
52849;DHT22;38714;53.180;5.812;2023-06-22T08:03:37;20.00;99.90
52849;DHT22;38714;53.180;5.812;2023-06-22T08:06:02;20.10;99.90
52849;DHT22;38714;53.180;5.812;2023-06-22T08:08:28;20.10;99.90
52849;DHT22;38714;53.180;5.812;2023-06-22T08:10:54;20.20;99.90
52849;DHT22;38714;53.180;5.812;2023-06-22T08:13:20;20.30;99.90
52849;DHT22;38714;53.180;5.812;2023-06-22T08:15:45;20.40;99.90
52849;DHT22;38714;53.180;5.812;2023-06-22T08:18:11;20.40;99.90
52849;DHT22;38714;53.180;5.812;2023-06-22T08:20:37;20.40;99.90
52849;DHT22;38714;53.180;5.812;2023-06-22T08:23:02;20.50;99.90
52849;DHT22;38714;53.180;5.812;2023-06-22T08:25:32;20.50;99.90
52849;DHT22;38714;53.180;5.812;2023-06-22T08:27:59;20.50;99.90
52849;DHT22;38714;53.180;5.812;2023-06-22T08:30:25;20.60;99.90
52849;DHT22;38714;53.180;5.812;2023-06-22T08:32:50;20.60;99.90
52849;DHT22;38714;53.180;5.812;2023-06-22T08:35:16;20.60;99.90
52849;DHT22;38714;53.180;5.812;2023-06-22T08:37:42;20.70;99.90
52849;DHT22;38714;53.180;5.812;2023-06-22T08:40:09;20.80;99.90
52849;DHT22;38714;53.180;5.812;2023-06-22T08:42:40;20.80;99.90
52849;DHT22;38714;53.180;5.812;2023-06-22T08:45:06;20.90;99.90
52849;DHT22;38714;53.180;5.812;2023-06-22T08:47:32;21.00;99.90
52849;DHT22;38714;53.180;5.812;2023-06-22T08:49:58;21.00;99.90
52849;DHT22;38714;53.180;5.812;2023-06-22T08:52:24;21.10;99.90
52849;DHT22;38714;53.180;5.812;2023-06-22T08:54:50;21.10;99.90
52849;DHT22;38714;53.180;5.812;2023-06-22T08:57:16;21.20;99.90
52849;DHT22;38714;53.180;5.812;2023-06-22T08:59:42;21.20;99.90
52849;DHT22;38714;53.180;5.812;2023-06-22T09:02:08;21.20;99.90
52849;DHT22;38714;53.180;5.812;2023-06-22T09:04:34;21.30;99.90
52849;DHT22;38714;53.180;5.812;2023-06-22T09:07:01;21.30;99.90
52849;DHT22;38714;53.180;5.812;2023-06-22T09:09:27;21.30;99.90
52849;DHT22;38714;53.180;5.812;2023-06-22T09:11:52;21.40;99.90
52849;DHT22;38714;53.180;5.812;2023-06-22T09:14:18;21.40;99.90
52849;DHT22;38714;53.180;5.812;2023-06-22T09:16:44;21.40;99.90
52849;DHT22;38714;53.180;5.812;2023-06-22T09:19:09;21.50;99.90
52849;DHT22;38714;53.180;5.812;2023-06-22T09:21:35;21.60;99.90
52849;DHT22;38714;53.180;5.812;2023-06-22T09:24:01;21.60;99.90
52849;DHT22;38714;53.180;5.812;2023-06-22T09:26:26;21.60;99.90
52849;DHT22;38714;53.180;5.812;2023-06-22T09:28:52;21.70;99.90
52849;DHT22;38714;53.180;5.812;2023-06-22T09:31:17;21.70;99.90
52849;DHT22;38714;53.180;5.812;2023-06-22T09:33:53;21.80;99.90
52849;DHT22;38714;53.180;5.812;2023-06-22T09:36:20;21.90;99.90
52849;DHT22;38714;53.180;5.812;2023-06-22T09:38:46;21.90;99.90
52849;DHT22;38714;53.180;5.812;2023-06-22T09:41:12;21.90;99.90
52849;DHT22;38714;53.180;5.812;2023-06-22T09:43:38;22.00;99.90
52849;DHT22;38714;53.180;5.812;2023-06-22T09:46:03;22.00;99.90
52849;DHT22;38714;53.180;5.812;2023-06-22T09:48:29;22.00;99.90
52849;DHT22;38714;53.180;5.812;2023-06-22T09:50:56;22.00;99.90
52849;DHT22;38714;53.180;5.812;2023-06-22T09:53:22;22.10;99.90
52849;DHT22;38714;53.180;5.812;2023-06-22T09:55:47;22.10;99.90
52849;DHT22;38714;53.180;5.812;2023-06-22T09:58:13;22.20;99.90
52849;DHT22;38714;53.180;5.812;2023-06-22T10:00:38;22.20;99.90
52849;DHT22;38714;53.180;5.812;2023-06-22T10:03:04;22.30;99.90
52849;DHT22;38714;53.180;5.812;2023-06-22T10:05:30;22.30;99.90
52849;DHT22;38714;53.180;5.812;2023-06-22T10:07:55;22.30;99.90
52849;DHT22;38714;53.180;5.812;2023-06-22T10:10:21;22.40;99.90
52849;DHT22;38714;53.180;5.812;2023-06-22T10:12:54;22.50;99.90
52849;DHT22;38714;53.180;5.812;2023-06-22T10:15:20;22.40;99.90
52849;DHT22;38714;53.180;5.812;2023-06-22T10:17:46;22.40;99.90
52849;DHT22;38714;53.180;5.812;2023-06-22T10:20:12;22.40;99.90
52849;DHT22;38714;53.180;5.812;2023-06-22T10:22:42;22.40;99.90
52849;DHT22;38714;53.180;5.812;2023-06-22T10:25:09;22.40;99.90
52849;DHT22;38714;53.180;5.812;2023-06-22T10:27:35;22.40;99.90
52849;DHT22;38714;53.180;5.812;2023-06-22T10:30:01;22.50;99.90
52849;DHT22;38714;53.180;5.812;2023-06-22T10:32:27;22.50;99.90
52849;DHT22;38714;53.180;5.812;2023-06-22T10:34:56;22.50;99.90
52849;DHT22;38714;53.180;5.812;2023-06-22T10:37:22;22.50;99.90
52849;DHT22;38714;53.180;5.812;2023-06-22T10:39:47;22.60;99.90
52849;DHT22;38714;53.180;5.812;2023-06-22T10:42:13;22.70;99.90
52849;DHT22;38714;53.180;5.812;2023-06-22T10:44:39;22.70;99.90
52849;DHT22;38714;53.180;5.812;2023-06-22T10:47:06;22.70;99.90
52849;DHT22;38714;53.180;5.812;2023-06-22T10:49:32;22.70;99.90
52849;DHT22;38714;53.180;5.812;2023-06-22T10:51:58;22.80;99.90
52849;DHT22;38714;53.180;5.812;2023-06-22T10:54:23;22.80;99.90
52849;DHT22;38714;53.180;5.812;2023-06-22T10:56:49;22.90;99.90
52849;DHT22;38714;53.180;5.812;2023-06-22T10:59:15;22.80;99.90
52849;DHT22;38714;53.180;5.812;2023-06-22T11:01:41;22.90;99.90
52849;DHT22;38714;53.180;5.812;2023-06-22T11:04:07;22.90;99.90
52849;DHT22;38714;53.180;5.812;2023-06-22T11:06:33;22.90;99.90
52849;DHT22;38714;53.180;5.812;2023-06-22T11:08:58;23.10;99.90
52849;DHT22;38714;53.180;5.812;2023-06-22T11:11:25;23.10;99.90
52849;DHT22;38714;53.180;5.812;2023-06-22T11:13:52;23.10;99.90
52849;DHT22;38714;53.180;5.812;2023-06-22T11:16:17;23.10;99.90
52849;DHT22;38714;53.180;5.812;2023-06-22T11:18:43;23.20;99.90
52849;DHT22;38714;53.180;5.812;2023-06-22T11:21:08;23.30;99.90
52849;DHT22;38714;53.180;5.812;2023-06-22T11:23:34;23.30;99.90
52849;DHT22;38714;53.180;5.812;2023-06-22T11:26:00;23.30;99.90
52849;DHT22;38714;53.180;5.812;2023-06-22T11:28:25;23.30;99.90
52849;DHT22;38714;53.180;5.812;2023-06-22T11:30:51;23.40;99.90
52849;DHT22;38714;53.180;5.812;2023-06-22T11:33:17;23.40;99.90
52849;DHT22;38714;53.180;5.812;2023-06-22T11:35:42;23.40;99.90
52849;DHT22;38714;53.180;5.812;2023-06-22T11:38:08;23.50;99.90
52849;DHT22;38714;53.180;5.812;2023-06-22T11:40:34;23.60;99.90
52849;DHT22;38714;53.180;5.812;2023-06-22T11:42:59;23.60;99.90
52849;DHT22;38714;53.180;5.812;2023-06-22T11:45:25;23.60;99.90
52849;DHT22;38714;53.180;5.812;2023-06-22T11:47:51;23.60;99.90
52849;DHT22;38714;53.180;5.812;2023-06-22T11:50:17;23.60;99.90
52849;DHT22;38714;53.180;5.812;2023-06-22T11:52:42;23.60;99.90
52849;DHT22;38714;53.180;5.812;2023-06-22T11:55:08;23.70;99.90
52849;DHT22;38714;53.180;5.812;2023-06-22T11:57:36;23.70;99.90
52849;DHT22;38714;53.180;5.812;2023-06-22T12:00:03;23.70;99.90
52849;DHT22;38714;53.180;5.812;2023-06-22T12:02:32;23.70;99.90
52849;DHT22;38714;53.180;5.812;2023-06-22T12:04:57;23.60;99.90
52849;DHT22;38714;53.180;5.812;2023-06-22T12:07:23;23.60;99.90
52849;DHT22;38714;53.180;5.812;2023-06-22T12:09:49;23.60;99.90
52849;DHT22;38714;53.180;5.812;2023-06-22T12:12:15;23.60;99.90
52849;DHT22;38714;53.180;5.812;2023-06-22T12:14:40;23.50;99.90
52849;DHT22;38714;53.180;5.812;2023-06-22T12:17:06;23.50;99.90
52849;DHT22;38714;53.180;5.812;2023-06-22T12:19:32;23.50;99.90
52849;DHT22;38714;53.180;5.812;2023-06-22T12:21:57;23.50;99.90
52849;DHT22;38714;53.180;5.812;2023-06-22T12:24:23;23.50;99.90
52849;DHT22;38714;53.180;5.812;2023-06-22T12:26:49;23.50;99.90
52849;DHT22;38714;53.180;5.812;2023-06-22T12:29:14;23.40;99.90
52849;DHT22;38714;53.180;5.812;2023-06-22T12:31:40;23.40;99.90
52849;DHT22;38714;53.180;5.812;2023-06-22T12:34:07;23.40;99.90
52849;DHT22;38714;53.180;5.812;2023-06-22T12:36:32;23.40;99.90
52849;DHT22;38714;53.180;5.812;2023-06-22T12:38:58;23.40;99.90
52849;DHT22;38714;53.180;5.812;2023-06-22T12:41:23;23.40;99.90
52849;DHT22;38714;53.180;5.812;2023-06-22T12:43:49;23.40;99.90
52849;DHT22;38714;53.180;5.812;2023-06-22T12:46:15;23.50;99.90
52849;DHT22;38714;53.180;5.812;2023-06-22T12:48:40;23.50;99.90
52849;DHT22;38714;53.180;5.812;2023-06-22T12:51:09;23.50;99.90
52849;DHT22;38714;53.180;5.812;2023-06-22T12:53:35;23.50;99.90
52849;DHT22;38714;53.180;5.812;2023-06-22T12:56:01;23.50;99.90
52849;DHT22;38714;53.180;5.812;2023-06-22T12:58:26;23.50;99.90
52849;DHT22;38714;53.180;5.812;2023-06-22T13:00:52;23.60;99.90
52849;DHT22;38714;53.180;5.812;2023-06-22T13:03:18;23.60;99.90
52849;DHT22;38714;53.180;5.812;2023-06-22T13:05:44;23.60;99.90
52849;DHT22;38714;53.180;5.812;2023-06-22T13:08:09;23.60;99.90
52849;DHT22;38714;53.180;5.812;2023-06-22T13:10:36;23.60;99.90
52849;DHT22;38714;53.180;5.812;2023-06-22T13:13:01;23.60;99.90
52849;DHT22;38714;53.180;5.812;2023-06-22T13:15:30;23.60;99.90
52849;DHT22;38714;53.180;5.812;2023-06-22T13:17:56;23.60;99.90
52849;DHT22;38714;53.180;5.812;2023-06-22T13:20:21;23.60;99.90
52849;DHT22;38714;53.180;5.812;2023-06-22T13:22:47;23.50;99.90
52849;DHT22;38714;53.180;5.812;2023-06-22T13:25:13;23.50;99.90
52849;DHT22;38714;53.180;5.812;2023-06-22T13:27:42;23.50;99.90
52849;DHT22;38714;53.180;5.812;2023-06-22T13:30:08;23.50;99.90
52849;DHT22;38714;53.180;5.812;2023-06-22T13:32:34;23.50;99.90
52849;DHT22;38714;53.180;5.812;2023-06-22T13:35:00;23.40;99.90
52849;DHT22;38714;53.180;5.812;2023-06-22T13:37:26;23.40;99.90
52849;DHT22;38714;53.180;5.812;2023-06-22T13:39:52;23.40;99.90
52849;DHT22;38714;53.180;5.812;2023-06-22T13:42:18;23.40;99.90
52849;DHT22;38714;53.180;5.812;2023-06-22T13:44:43;23.40;99.90
52849;DHT22;38714;53.180;5.812;2023-06-22T13:47:09;23.30;99.90
52849;DHT22;38714;53.180;5.812;2023-06-22T13:49:35;23.30;99.90
52849;DHT22;38714;53.180;5.812;2023-06-22T13:52:01;23.30;99.90
52849;DHT22;38714;53.180;5.812;2023-06-22T13:54:28;23.30;99.90
52849;DHT22;38714;53.180;5.812;2023-06-22T13:56:54;23.30;99.90
52849;DHT22;38714;53.180;5.812;2023-06-22T13:59:22;23.30;99.90
52849;DHT22;38714;53.180;5.812;2023-06-22T14:01:48;23.20;99.90
52849;DHT22;38714;53.180;5.812;2023-06-22T14:04:14;23.20;99.90
52849;DHT22;38714;53.180;5.812;2023-06-22T14:06:39;23.20;99.90
52849;DHT22;38714;53.180;5.812;2023-06-22T14:09:05;23.10;99.90
52849;DHT22;38714;53.180;5.812;2023-06-22T14:11:31;23.10;99.90
52849;DHT22;38714;53.180;5.812;2023-06-22T14:13:56;23.10;99.90
52849;DHT22;38714;53.180;5.812;2023-06-22T14:16:22;23.10;99.90
52849;DHT22;38714;53.180;5.812;2023-06-22T14:18:47;23.00;99.90
52849;DHT22;38714;53.180;5.812;2023-06-22T14:21:13;23.00;99.90
52849;DHT22;38714;53.180;5.812;2023-06-22T14:23:39;23.00;99.90
52849;DHT22;38714;53.180;5.812;2023-06-22T14:26:04;22.90;99.90
52849;DHT22;38714;53.180;5.812;2023-06-22T14:28:30;22.90;99.90
52849;DHT22;38714;53.180;5.812;2023-06-22T14:30:56;22.90;99.90
52849;DHT22;38714;53.180;5.812;2023-06-22T14:33:22;22.80;99.90
52849;DHT22;38714;53.180;5.812;2023-06-22T14:35:47;22.70;99.90
52849;DHT22;38714;53.180;5.812;2023-06-22T14:38:14;22.70;99.90
52849;DHT22;38714;53.180;5.812;2023-06-22T14:40:42;22.70;99.90
52849;DHT22;38714;53.180;5.812;2023-06-22T14:43:08;22.70;99.90
52849;DHT22;38714;53.180;5.812;2023-06-22T14:45:33;22.70;99.90
52849;DHT22;38714;53.180;5.812;2023-06-22T14:47:59;22.70;99.90
52849;DHT22;38714;53.180;5.812;2023-06-22T14:50:24;22.70;99.90
52849;DHT22;38714;53.180;5.812;2023-06-22T14:52:50;22.70;99.90
52849;DHT22;38714;53.180;5.812;2023-06-22T14:55:16;22.70;99.90
52849;DHT22;38714;53.180;5.812;2023-06-22T14:57:41;22.70;99.90
52849;DHT22;38714;53.180;5.812;2023-06-22T15:00:07;22.70;99.90
52849;DHT22;38714;53.180;5.812;2023-06-22T15:02:33;22.60;99.90
52849;DHT22;38714;53.180;5.812;2023-06-22T15:04:58;22.60;99.90
52849;DHT22;38714;53.180;5.812;2023-06-22T15:07:24;22.50;99.90
52849;DHT22;38714;53.180;5.812;2023-06-22T15:09:50;22.50;99.90
52849;DHT22;38714;53.180;5.812;2023-06-22T15:12:15;22.50;99.90
52849;DHT22;38714;53.180;5.812;2023-06-22T15:14:41;22.50;99.90
52849;DHT22;38714;53.180;5.812;2023-06-22T15:17:08;22.50;99.90
52849;DHT22;38714;53.180;5.812;2023-06-22T15:19:37;22.50;99.90
52849;DHT22;38714;53.180;5.812;2023-06-22T15:22:05;22.50;99.90
52849;DHT22;38714;53.180;5.812;2023-06-22T15:24:31;22.50;99.90
52849;DHT22;38714;53.180;5.812;2023-06-22T15:26:57;22.40;99.90
52849;DHT22;38714;53.180;5.812;2023-06-22T15:29:23;22.40;99.90
52849;DHT22;38714;53.180;5.812;2023-06-22T15:31:49;22.40;99.90
52849;DHT22;38714;53.180;5.812;2023-06-22T15:34:15;22.40;99.90